tribewriters.com alexa rank chart, tribewriters.com alexa rank daily changes

tribewriters.com alexa rank chart, tribewriters.com alexa rank daily changes

tribewriters.com
Actual rank:
889 778

RANK HISTORY

Date Rank Diff
2017/02/22 889 778 +318
2017/02/21 889 460 +6 020
2017/02/20 883 440 +8 188
2017/02/19 875 252 -2 865
2017/02/18 878 117 +4 763
2017/02/17 873 354 -42 494
2017/02/16 915 848 -31 396
2017/02/15 947 244 -13 795
2017/02/14 961 039 +36 902
2017/02/13 924 137 +75 975
2017/02/12 848 162 +19 425
2017/02/11 828 737 -37
2017/02/10 828 774 +39 399
2017/02/09 789 375 +15 583
2017/02/08 773 792 -16 130
2017/02/07 789 922 +16 156
2017/02/06 773 766 -24 201
2017/02/05 797 967 -12 095
2017/02/04 810 062 +40 411
2017/02/03 769 651 +13 542
2017/02/02 756 109 +5 143
2017/02/01 750 966 -31 470
2017/01/31 782 436 +42 616
2017/01/30 739 820 -648
2017/01/29 740 468 -31 534
2017/01/28 772 002 -34 385
2017/01/27 806 387 +3 306
2017/01/26 803 081 -20 885
2017/01/25 823 966 +11 778
2017/01/24 812 188 -94 632
2017/01/23 906 820 +16 396
2017/01/22 890 424 +17 911
2017/01/21 872 513 +12 978
2017/01/20 859 535 -7 925
2017/01/19 867 460 +4 079
2017/01/18 863 381 +23 787
2017/01/17 839 594 +2 667
2017/01/16 836 927 -28 253
2017/01/15 865 180 -6 202
2017/01/14 871 382 -29 311
2017/01/13 900 693

WIDGET FOR YOUR SITE

DOMAINS WITH THE NEAREST RANK

Domain Rank
canal.com.br 889 773
stagingaz.gov 889 774
y80s.cc 889 775
tubeauthorityrocket.com 889 776
oldtimercameras.com 889 777
tribewriters.com 889 778
flyerco.com 889 779
hummel.com 889 780
konfor.com.tr 889 781
temayeri.com 889 782
smallbusinessadvocate.com 889 783

DOMAINS WITH THE NEAREST RANK BY TLD .com

Domain Rank
prazdniki-na-nosu.com 889 769
chesterfieldauto.com 889 771
fitlink.com 889 772
tubeauthorityrocket.com 889 776
oldtimercameras.com 889 777
tribewriters.com 889 778
flyerco.com 889 779
hummel.com 889 780
temayeri.com 889 782
smallbusinessadvocate.com 889 783
kineticdogfood.com 889 785